Terminal Aerodrome Forecast
Issued by NWS

Home | Current Version | Previous Version | Text Only | Print | Product List | Glossary On
Versions: 1 2 3 4 5 6 7 8 9 10 11 12 13 14 15 16 17 18 19 20 21 22 23 24 25
000
FTUS43 KABR 110500 AAD
TAFPIR
TAF AMD
KPIR 110500Z 1105/1124 05007KT P6SM FEW008 SCT025
     FM110800 VRB03KT P6SM OVC015
     FM111400 13007KT 3SM -SN BKN015 OVC035=

USA.gov is the U.S. government's official web portal to all federal, state and local government web resources and services.